Maceo, Kentucky
Current Conditions -  °F | °C
As of 8:56 AM on Saturday 25 Oct 2014 (Local Time) from KOWB Reporting Station
Broken Clouds Broken Clouds  
Wind Chill: 60°   Ceiling: 2700
Heat Index: 60°   Visibility: 7mi
Dew Point: 55°   Wind: 6mph
Humidity: 83%   Direction: 210°SSW
Pressure: 30.04"   Gusts: NA
Location:  37.86°N, 86.99°W
Report Text: KOWB 251356Z 21005KT 7SM BKN027 16/13 A3004 RMK AO2 T01550127 SLP173
Loading
Personal Weather Stations






























Interactive Weather Map
Tropical Storm Tracking
New forecast layout! Learn more

10-Day Weather Forecast

Advertisements
Track Severe Weather on mobile